Time;durP1;ratioP1;P1;durP2;ratioP2;P2;SDS_P1;SDS_P2;PMS_P1;PMS_P2;Temp;Humidity;BMP_temperature;BMP_pressure;BME280_temperature;BME280_humidity;BME280_pressure;Samples;Min_cycle;Max_cycle;Signal;HPM_P1;HPM_P2
2022/01/05 00:04:06;;;;;;;12.87;2.97;;;;;2.50;99797.00;;;;9901335;29;20214;-80
2022/01/05 00:09:43;;;;;;;7.40;2.43;;;;;2.30;99796.00;;;;9868398;29;20212;-80
2022/01/05 00:15:19;;;;;;;14.10;3.40;;;;;2.20;99795.00;;;;9907055;29;20949;-80
2022/01/05 00:20:56;;;;;;;9.93;3.47;;;;;2.20;99801.00;;;;9904280;29;20222;-80
2022/01/05 00:26:31;;;;;;;9.80;3.23;;;;;2.10;99803.00;;;;9885916;29;20214;-80
2022/01/05 00:32:07;;;;;;;9.07;3.13;;;;;2.00;99798.00;;;;9867663;30;20214;-80
2022/01/05 00:37:43;;;;;;;9.00;2.87;;;;;1.90;99785.00;;;;9887824;30;20206;-79
2022/01/05 00:43:19;;;;;;;13.37;2.90;;;;;1.90;99795.00;;;;9916644;29;20203;-79
2022/01/05 00:48:55;;;;;;;13.30;3.40;;;;;1.90;99804.00;;;;9897900;29;20223;-79
2022/01/05 00:54:32;;;;;;;15.27;3.73;;;;;1.90;99807.00;;;;9935699;29;20214;-79
2022/01/05 01:00:10;;;;;;;18.67;3.87;;;;;1.80;99798.00;;;;9932716;29;20230;-79
2022/01/05 01:05:47;;;;;;;10.80;2.90;;;;;1.90;99802.00;;;;9917508;29;20213;-80
2022/01/05 01:11:24;;;;;;;9.77;2.47;;;;;1.80;99808.00;;;;9900408;29;20235;-79
2022/01/05 01:16:59;;;;;;;9.10;2.93;;;;;1.80;99805.00;;;;9903947;29;20207;-79
2022/01/05 01:22:36;;;;;;;5.73;2.90;;;;;1.70;99820.00;;;;9904294;29;20235;-80
2022/01/05 01:28:11;;;;;;;11.50;2.70;;;;;1.70;99820.00;;;;9899306;29;20239;-80
2022/01/05 01:33:47;;;;;;;12.90;2.63;;;;;1.70;99825.00;;;;9911054;29;20752;-79
2022/01/05 01:39:23;;;;;;;10.27;2.90;;;;;1.80;99832.00;;;;9902961;29;20200;-79
2022/01/05 01:44:59;;;;;;;16.03;3.37;;;;;1.90;99836.00;;;;9923014;29;20329;-79
2022/01/05 01:50:35;;;;;;;12.93;3.43;;;;;1.90;99840.00;;;;9920848;29;20206;-80
2022/01/05 01:56:13;;;;;;;9.50;2.83;;;;;1.80;99845.00;;;;9918735;29;20647;-79
2022/01/05 02:01:49;;;;;;;14.90;2.90;;;;;1.70;99851.00;;;;9877623;29;20188;-79
2022/01/05 02:07:26;;;;;;;19.60;3.27;;;;;1.70;99852.00;;;;9889372;29;20244;-80
2022/01/05 02:13:01;;;;;;;10.87;3.63;;;;;1.70;99858.00;;;;9914341;29;20211;-79
2022/01/05 02:24:16;;;;;;;12.10;3.27;;;;;1.60;99858.00;;;;9903039;29;20238;-81
2022/01/05 02:29:52;;;;;;;11.23;2.83;;;;;1.50;99858.00;;;;9902654;29;20567;-80
2022/01/05 02:35:29;;;;;;;15.27;3.07;;;;;1.40;99850.00;;;;9920269;29;20211;-80
2022/01/05 02:41:14;;;;;;;11.13;2.30;;;;;1.40;99869.00;;;;9918457;29;20198;-80
2022/01/05 02:47:00;;;;;;;8.77;2.77;;;;;1.40;99878.00;;;;9895789;29;20207;-80
2022/01/05 02:52:36;;;;;;;14.47;3.50;;;;;1.40;99886.00;;;;9922613;29;20225;-79
2022/01/05 02:58:12;;;;;;;13.63;2.80;;;;;1.40;99888.00;;;;9895028;29;20203;-80
2022/01/05 03:03:49;;;;;;;14.27;2.73;;;;;1.30;99893.00;;;;9909537;29;20203;-79
2022/01/05 03:09:25;;;;;;;9.67;2.30;;;;;1.30;99903.00;;;;9892297;29;20222;-80
2022/01/05 03:15:01;;;;;;;13.50;2.67;;;;;1.30;99902.00;;;;9917865;29;20199;-80
2022/01/05 03:20:40;;;;;;;11.40;3.27;;;;;1.30;99907.00;;;;9917004;29;20958;-80
2022/01/05 03:26:15;;;;;;;14.03;2.60;;;;;1.30;99916.00;;;;9907025;29;20215;-79
2022/01/05 03:31:52;;;;;;;9.47;3.03;;;;;1.20;99933.00;;;;9895375;29;20213;-79
2022/01/05 03:37:27;;;;;;;10.37;3.13;;;;;1.10;99941.00;;;;9933807;29;20670;-79
2022/01/05 03:43:03;;;;;;;12.37;4.20;;;;;1.00;99944.00;;;;9901613;29;20191;-79
2022/01/05 03:48:39;;;;;;;10.40;2.93;;;;;1.10;99942.00;;;;9879270;29;20229;-80
2022/01/05 03:54:18;;;;;;;14.27;3.40;;;;;1.10;99950.00;;;;9913882;29;20213;-79
2022/01/05 03:59:54;;;;;;;10.13;3.33;;;;;1.10;99955.00;;;;9924191;29;20199;-80
2022/01/05 04:05:37;;;;;;;12.40;3.30;;;;;1.00;99972.00;;;;9857225;29;20203;-80
2022/01/05 04:11:13;;;;;;;17.43;3.63;;;;;1.00;99972.00;;;;9860715;29;20806;-79
2022/01/05 04:16:49;;;;;;;12.43;3.50;;;;;1.00;99979.00;;;;9863261;29;20211;-79
2022/01/05 04:22:25;;;;;;;10.70;3.00;;;;;1.10;99982.00;;;;9919052;29;20223;-79
2022/01/05 04:28:01;;;;;;;11.27;3.53;;;;;1.10;99979.00;;;;9870535;29;20294;-80
2022/01/05 04:33:37;;;;;;;18.13;4.20;;;;;1.20;99992.00;;;;9935581;29;20275;-79
2022/01/05 04:39:33;;;;;;;15.17;3.37;;;;;1.10;99997.00;;;;9907137;29;20206;-80
2022/01/05 04:45:10;;;;;;;13.97;3.40;;;;;1.00;99991.00;;;;9898673;29;20550;-79
2022/01/05 04:50:46;;;;;;;10.93;3.67;;;;;1.00;99993.00;;;;9904118;29;20230;-80
2022/01/05 04:56:22;;;;;;;12.50;4.53;;;;;1.00;99993.00;;;;9906798;29;20196;-81
2022/01/05 05:01:58;;;;;;;11.67;3.43;;;;;1.00;99985.00;;;;9880738;30;20212;-79
2022/01/05 05:07:34;;;;;;;18.10;3.83;;;;;1.00;100000.00;;;;9896756;29;20217;-80
2022/01/05 05:13:23;;;;;;;14.27;3.47;;;;;1.00;100012.00;;;;9865066;29;20215;-80
2022/01/05 05:18:59;;;;;;;23.77;4.10;;;;;1.00;100010.00;;;;9887302;29;20205;-80
2022/01/05 05:24:36;;;;;;;9.97;3.27;;;;;1.00;100005.00;;;;9935803;29;20310;-80
2022/01/05 05:30:12;;;;;;;14.00;3.77;;;;;1.00;100002.00;;;;9907123;29;20695;-79
2022/01/05 05:35:48;;;;;;;17.17;3.53;;;;;1.10;100011.00;;;;9918711;29;20214;-79
2022/01/05 05:41:24;;;;;;;9.60;3.00;;;;;1.20;100019.00;;;;9911112;29;20203;-80
2022/01/05 05:47:00;;;;;;;12.83;3.97;;;;;1.20;100018.00;;;;9910448;29;20230;-80
2022/01/05 05:52:36;;;;;;;9.73;3.30;;;;;1.30;100024.00;;;;9913219;29;20222;-81
2022/01/05 05:58:13;;;;;;;20.03;3.40;;;;;1.30;100029.00;;;;9898237;29;20210;-79
2022/01/05 06:03:49;;;;;;;18.33;4.27;;;;;1.40;100036.00;;;;9900369;29;20196;-79
2022/01/05 06:09:26;;;;;;;10.53;3.40;;;;;1.40;100054.00;;;;9916102;29;20211;-80
2022/01/05 06:15:02;;;;;;;15.17;3.23;;;;;1.60;100061.00;;;;9900836;29;20204;-80
2022/01/05 06:20:38;;;;;;;11.40;2.97;;;;;1.70;100058.00;;;;9864548;29;20310;-80
2022/01/05 06:26:14;;;;;;;10.40;2.80;;;;;1.80;100075.00;;;;9866745;29;20199;-79
2022/01/05 06:31:50;;;;;;;11.23;3.37;;;;;1.90;100083.00;;;;9897311;29;20215;-79
2022/01/05 06:37:27;;;;;;;15.40;2.90;;;;;1.90;100086.00;;;;9879376;29;20241;-79
2022/01/05 06:43:03;;;;;;;9.43;3.10;;;;;1.80;100086.00;;;;9884869;29;20211;-79
2022/01/05 06:48:41;;;;;;;11.67;3.53;;;;;1.80;100098.00;;;;9886035;29;20206;-79
2022/01/05 06:54:17;;;;;;;11.07;2.63;;;;;1.90;100103.00;;;;9910972;29;20207;-80
2022/01/05 06:59:53;;;;;;;14.63;2.57;;;;;2.00;100109.00;;;;9921063;29;20209;-80
2022/01/05 07:05:29;;;;;;;11.73;3.07;;;;;2.10;100096.00;;;;9848870;29;20248;-79
2022/01/05 07:11:05;;;;;;;11.90;2.97;;;;;2.10;100102.00;;;;9878403;29;20219;-79
2022/01/05 07:16:41;;;;;;;12.63;2.00;;;;;2.10;100107.00;;;;9903974;29;20203;-78
2022/01/05 07:22:17;;;;;;;11.53;2.60;;;;;2.10;100129.00;;;;9895061;29;20253;-79
2022/01/05 07:27:53;;;;;;;12.37;2.90;;;;;2.20;100140.00;;;;9884819;29;20206;-79
2022/01/05 07:33:29;;;;;;;15.73;3.67;;;;;2.20;100136.00;;;;9907659;29;20215;-79
2022/01/05 07:39:05;;;;;;;17.63;3.33;;;;;2.20;100147.00;;;;9888929;29;20195;-78
2022/01/05 07:44:41;;;;;;;13.73;3.13;;;;;2.20;100155.00;;;;9893080;29;20203;-79
2022/01/05 07:50:17;;;;;;;12.17;3.20;;;;;2.30;100170.00;;;;9917558;29;20225;-79
2022/01/05 07:55:53;;;;;;;12.47;3.00;;;;;2.30;100171.00;;;;9907752;29;20203;-79
2022/01/05 08:01:29;;;;;;;12.40;3.63;;;;;2.40;100182.00;;;;9892314;29;20200;-79
2022/01/05 08:07:05;;;;;;;14.17;3.70;;;;;2.50;100196.00;;;;9888830;29;20230;-79
2022/01/05 08:12:43;;;;;;;13.40;3.40;;;;;2.60;100209.00;;;;9930581;29;20215;-78
2022/01/05 08:18:18;;;;;;;14.33;3.77;;;;;2.60;100211.00;;;;9935120;29;20207;-78
2022/01/05 08:23:54;;;;;;;13.20;3.47;;;;;2.80;100217.00;;;;9888418;29;20219;-79
2022/01/05 08:29:30;;;;;;;13.97;3.60;;;;;2.80;100232.00;;;;9905526;29;20212;-79
2022/01/05 08:35:06;;;;;;;10.87;3.37;;;;;2.90;100237.00;;;;9898472;29;20203;-79
2022/01/05 08:40:31;;;;;;;14.27;3.43;;;;;3.00;100231.00;;;;9887764;29;20298;-78
2022/01/05 08:45:34;;;;;;;18.30;3.83;;;;;3.10;100241.00;;;;9894544;29;20219;-78
2022/01/05 08:50:36;;;;;;;9.67;3.27;;;;;3.20;100251.00;;;;9922732;29;20743;-78
2022/01/05 08:55:41;;;;;;;16.30;3.20;;;;;3.30;100258.00;;;;9907902;29;20302;-78
2022/01/05 09:00:43;;;;;;;12.33;3.40;;;;;3.40;100265.00;;;;9892329;29;20200;-78
2022/01/05 09:05:46;;;;;;;14.03;3.50;;;;;3.50;100274.00;;;;9893717;29;20211;-78
2022/01/05 09:10:47;;;;;;;13.60;3.87;;;;;3.50;100279.00;;;;9925524;29;20223;-78
2022/01/05 09:15:49;;;;;;;12.10;3.73;;;;;3.50;100283.00;;;;9898443;29;20211;-78
2022/01/05 09:20:52;;;;;;;13.43;3.23;;;;;3.60;100291.00;;;;9877724;29;20276;-78
2022/01/05 09:25:54;;;;;;;13.17;3.63;;;;;3.70;100288.00;;;;9930596;29;20231;-78
2022/01/05 09:30:56;;;;;;;15.10;3.90;;;;;3.80;100295.00;;;;9897351;30;20324;-77
2022/01/05 09:36:07;;;;;;;12.97;3.60;;;;;3.90;100294.00;;;;9903715;29;20229;-78
2022/01/05 09:46:43;;;;;;;13.13;3.40;;;;;4.30;100311.00;;;;9930440;29;20199;-78
2022/01/05 09:51:50;;;;;;;9.40;3.37;;;;;4.70;100333.00;;;;9905555;29;20310;-77
2022/01/05 09:56:53;;;;;;;11.90;3.70;;;;;4.70;100335.00;;;;9918413;29;20229;-78
2022/01/05 10:01:55;;;;;;;20.43;8.50;;;;;4.70;100348.00;;;;9919829;29;20203;-78
2022/01/05 10:06:57;;;;;;;15.33;5.20;;;;;4.80;100348.00;;;;9920143;29;20564;-78
2022/01/05 10:12:02;;;;;;;15.73;4.37;;;;;4.80;100358.00;;;;9910116;29;20215;-78
2022/01/05 10:17:07;;;;;;;20.40;4.63;;;;;4.90;100366.00;;;;9937011;29;20392;-77
2022/01/05 10:22:37;;;;;;;19.53;4.90;;;;;4.90;100354.00;;;;9891204;29;20230;-78
2022/01/05 10:27:39;;;;;;;13.33;3.53;;;;;4.90;100357.00;;;;9887170;29;20857;-78
2022/01/05 10:32:45;;;;;;;15.80;4.10;;;;;5.70;100387.00;;;;9909234;29;20211;-78
2022/01/05 10:37:58;;;;;;;19.40;4.00;;;;;5.40;100381.00;;;;9909572;29;20212;-78
2022/01/05 10:43:07;;;;;;;15.63;4.13;;;;;5.30;100376.00;;;;9888425;29;20282;-78
2022/01/05 10:48:14;;;;;;;14.63;3.33;;;;;5.60;100385.00;;;;9911593;29;20652;-78
2022/01/05 10:53:21;;;;;;;14.50;3.77;;;;;5.90;100398.00;;;;9916114;29;20268;-79
2022/01/05 10:58:23;;;;;;;11.50;3.30;;;;;5.80;100401.00;;;;9884312;30;20206;-78
2022/01/05 11:03:35;;;;;;;16.43;3.43;;;;;5.50;100404.00;;;;9932971;29;20187;-78
2022/01/05 11:08:48;;;;;;;15.17;3.37;;;;;5.30;100396.00;;;;9896316;29;20207;-78
2022/01/05 11:13:53;;;;;;;15.33;3.17;;;;;5.20;100406.00;;;;9887911;29;21050;-79
2022/01/05 11:19:10;;;;;;;12.67;3.53;;;;;5.40;100405.00;;;;9932895;29;20210;-79
2022/01/05 11:24:12;;;;;;;21.70;4.33;;;;;5.40;100411.00;;;;9903142;29;20226;-79
2022/01/05 11:29:14;;;;;;;13.17;4.10;;;;;5.30;100411.00;;;;9917846;29;20211;-78
2022/01/05 11:34:16;;;;;;;18.20;3.93;;;;;5.40;100414.00;;;;9916810;29;20240;-79
2022/01/05 11:39:18;;;;;;;12.07;3.53;;;;;5.90;100431.00;;;;9918036;29;20268;-79
2022/01/05 11:44:20;;;;;;;17.10;4.20;;;;;6.00;100426.00;;;;9917904;29;20203;-79
2022/01/05 11:49:27;;;;;;;11.83;3.83;;;;;6.20;100425.00;;;;9917132;29;20207;-79
2022/01/05 11:54:32;;;;;;;12.33;3.27;;;;;6.00;100426.00;;;;9887658;29;20611;-79
2022/01/05 11:59:39;;;;;;;13.00;2.97;;;;;5.70;100440.00;;;;9903619;29;20593;-79
2022/01/05 12:04:56;;;;;;;10.43;3.10;;;;;5.70;100446.00;;;;9930918;29;20202;-79
2022/01/05 12:09:59;;;;;;;14.03;2.40;;;;;5.60;100458.00;;;;9886624;29;20759;-80
2022/01/05 12:15:04;;;;;;;14.30;3.27;;;;;5.40;100459.00;;;;9953681;29;20203;-79
2022/01/05 12:20:08;;;;;;;19.73;4.27;;;;;5.40;100471.00;;;;9911886;29;20199;-79
2022/01/05 12:25:12;;;;;;;10.50;3.30;;;;;5.40;100472.00;;;;9914532;29;20221;-79
2022/01/05 12:30:16;;;;;;;16.80;3.10;;;;;5.50;100468.00;;;;9896385;29;20219;-79
2022/01/05 12:35:20;;;;;;;13.13;3.00;;;;;6.10;100480.00;;;;9878490;29;20207;-79
2022/01/05 12:40:36;;;;;;;19.90;4.43;;;;;6.60;100471.00;;;;9898044;29;20195;-79
2022/01/05 12:45:44;;;;;;;11.50;2.90;;;;;8.00;100465.00;;;;9919281;29;20254;-79
2022/01/05 12:50:46;;;;;;;13.00;2.67;;;;;7.90;100468.00;;;;9907950;29;20219;-79
2022/01/05 12:55:50;;;;;;;13.00;2.57;;;;;7.00;100460.00;;;;9908113;29;20628;-79
2022/01/05 13:00:54;;;;;;;6.70;2.27;;;;;6.90;100471.00;;;;9929722;29;20260;-79
2022/01/05 13:06:15;;;;;;;5.90;2.00;;;;;6.60;100483.00;;;;9907333;29;20214;-79
2022/01/05 13:11:40;;;;;;;11.87;3.10;;;;;6.60;100472.00;;;;9926759;29;20230;-79
2022/01/05 13:16:43;;;;;;;11.40;2.30;;;;;6.60;100475.00;;;;9951448;29;20252;-79
2022/01/05 13:21:47;;;;;;;10.37;2.23;;;;;7.10;100476.00;;;;9921724;29;20227;-79
2022/01/05 13:27:06;;;;;;;9.03;1.97;;;;;7.30;100479.00;;;;9936679;29;20211;-79
2022/01/05 13:32:10;;;;;;;9.47;2.30;;;;;7.00;100455.00;;;;9936114;29;20222;-79
2022/01/05 13:37:25;;;;;;;15.33;3.30;;;;;7.20;100480.00;;;;9921465;29;20206;-79
2022/01/05 13:42:34;;;;;;;10.27;2.50;;;;;7.00;100489.00;;;;9899220;30;20211;-79
2022/01/05 13:47:37;;;;;;;20.23;4.30;;;;;7.40;100506.00;;;;9899839;29;20218;-78
2022/01/05 13:52:40;;;;;;;10.30;2.33;;;;;7.10;100504.00;;;;9907558;29;20242;-79
2022/01/05 13:57:42;;;;;;;15.13;3.10;;;;;6.70;100525.00;;;;9906395;29;20672;-79
2022/01/05 14:02:44;;;;;;;14.90;2.70;;;;;6.60;100527.00;;;;9935381;29;20199;-80
2022/01/05 14:07:46;;;;;;;10.70;2.97;;;;;6.50;100521.00;;;;9893911;29;20728;-79
2022/01/05 14:12:50;;;;;;;12.33;2.67;;;;;6.40;100526.00;;;;9934338;29;20275;-80
2022/01/05 14:18:11;;;;;;;15.40;2.70;;;;;6.40;100543.00;;;;9934629;29;20256;-79
2022/01/05 14:23:19;;;;;;;8.10;2.60;;;;;6.40;100550.00;;;;9904759;29;20280;-79
2022/01/05 14:28:33;;;;;;;6.40;2.43;;;;;6.30;100543.00;;;;9918699;29;20843;-79
2022/01/05 14:33:50;;;;;;;16.57;2.40;;;;;6.10;100562.00;;;;9889550;29;20227;-79
2022/01/05 14:38:53;;;;;;;13.43;2.23;;;;;6.00;100582.00;;;;9882771;29;20210;-78
2022/01/05 14:44:10;;;;;;;9.60;2.40;;;;;6.20;100587.00;;;;9915966;29;20207;-79
2022/01/05 14:49:13;;;;;;;10.53;2.43;;;;;6.30;100587.00;;;;9903636;29;20202;-78
2022/01/05 14:54:16;;;;;;;18.33;3.27;;;;;6.40;100574.00;;;;9904077;29;20289;-78
2022/01/05 14:59:18;;;;;;;10.53;3.03;;;;;6.40;100583.00;;;;9906746;29;20212;-78
2022/01/05 15:04:20;;;;;;;10.47;2.70;;;;;6.20;100576.00;;;;9865710;30;20549;-78
2022/01/05 15:09:24;;;;;;;11.30;2.50;;;;;6.10;100599.00;;;;9882888;29;20634;-78
2022/01/05 15:14:27;;;;;;;9.30;2.10;;;;;5.90;100610.00;;;;9902689;29;20218;-78
2022/01/05 15:19:29;;;;;;;11.17;2.17;;;;;5.70;100626.00;;;;9912441;29;20260;-79
2022/01/05 15:24:31;;;;;;;10.23;2.60;;;;;5.60;100628.00;;;;9902788;29;20226;-78
2022/01/05 15:29:35;;;;;;;9.80;2.00;;;;;5.60;100636.00;;;;9917347;29;20199;-78
2022/01/05 15:34:37;;;;;;;10.37;2.50;;;;;5.60;100640.00;;;;9892792;29;20258;-78
2022/01/05 15:39:40;;;;;;;12.80;2.67;;;;;5.50;100647.00;;;;9909342;29;20215;-78
2022/01/05 15:44:44;;;;;;;12.50;2.33;;;;;5.40;100651.00;;;;9865371;30;20203;-79
2022/01/05 15:49:46;;;;;;;9.33;2.40;;;;;5.40;100661.00;;;;9879649;30;20208;-78
2022/01/05 15:54:54;;;;;;;8.10;2.10;;;;;5.40;100678.00;;;;9866058;30;20688;-79
2022/01/05 16:05:26;;;;;;;11.67;2.60;;;;;5.30;100686.00;;;;9931774;29;20748;-79
2022/01/05 16:10:28;;;;;;;11.50;3.00;;;;;5.30;100701.00;;;;9901917;29;20229;-79
2022/01/05 16:15:30;;;;;;;11.37;2.80;;;;;5.40;100704.00;;;;9879899;30;20214;-78
2022/01/05 16:20:32;;;;;;;14.90;2.57;;;;;5.30;100717.00;;;;9893612;30;20724;-78
2022/01/05 16:25:36;;;;;;;9.53;2.50;;;;;5.30;100721.00;;;;9922934;29;20207;-78
2022/01/05 16:30:38;;;;;;;14.07;2.33;;;;;5.30;100733.00;;;;9907884;29;20224;-78
2022/01/05 16:35:39;;;;;;;9.10;2.53;;;;;5.30;100734.00;;;;9892881;30;20266;-78
2022/01/05 16:40:42;;;;;;;11.47;2.80;;;;;5.40;100740.00;;;;9908735;29;20200;-79
2022/01/05 16:45:44;;;;;;;13.07;1.87;;;;;5.30;100737.00;;;;9927107;29;20206;-78
2022/01/05 16:50:46;;;;;;;11.80;2.67;;;;;5.20;100756.00;;;;9959532;29;20218;-79
2022/01/05 16:55:51;;;;;;;14.93;2.73;;;;;5.10;100754.00;;;;9959344;29;20202;-80
2022/01/05 17:00:53;;;;;;;12.17;2.47;;;;;5.00;100760.00;;;;9929399;29;20854;-79
2022/01/05 17:05:55;;;;;;;21.67;4.03;;;;;4.90;100761.00;;;;9948582;29;20229;-79
2022/01/05 17:10:58;;;;;;;10.67;2.37;;;;;4.90;100761.00;;;;9875308;29;20224;-79
2022/01/05 17:16:00;;;;;;;14.27;3.23;;;;;4.80;100771.00;;;;9885262;30;20199;-79
2022/01/05 17:21:02;;;;;;;16.47;3.00;;;;;4.80;100773.00;;;;9884572;29;20722;-79
2022/01/05 17:26:04;;;;;;;12.10;2.80;;;;;4.80;100774.00;;;;9933652;29;20203;-78
2022/01/05 17:31:09;;;;;;;13.40;3.73;;;;;4.80;100773.00;;;;9869196;29;20226;-79
2022/01/05 17:36:11;;;;;;;13.77;2.90;;;;;4.80;100770.00;;;;9898673;30;20245;-81
2022/01/05 17:41:13;;;;;;;15.23;2.67;;;;;4.80;100777.00;;;;9922303;29;20302;-82
2022/01/05 17:46:16;;;;;;;19.17;4.97;;;;;4.70;100778.00;;;;9935673;29;20199;-80
2022/01/05 17:51:20;;;;;;;20.53;3.43;;;;;4.70;100781.00;;;;9906480;29;20267;-81
2022/01/05 17:56:23;;;;;;;17.77;4.17;;;;;4.60;100797.00;;;;9892996;29;20337;-80
2022/01/05 18:01:25;;;;;;;16.37;4.20;;;;;4.60;100795.00;;;;9921852;29;20193;-81
2022/01/05 18:06:28;;;;;;;11.67;3.50;;;;;4.60;100808.00;;;;9921986;29;20241;-80
2022/01/05 18:11:30;;;;;;;13.50;3.80;;;;;4.70;100819.00;;;;9921554;29;20214;-81
2022/01/05 18:16:32;;;;;;;15.80;4.17;;;;;4.70;100820.00;;;;9898011;29;20286;-81
2022/01/05 18:21:34;;;;;;;14.37;3.07;;;;;4.70;100827.00;;;;9946753;29;20220;-81
2022/01/05 18:26:37;;;;;;;14.63;3.47;;;;;4.70;100839.00;;;;9873670;29;20679;-80
2022/01/05 18:31:41;;;;;;;17.63;3.97;;;;;4.70;100838.00;;;;9915755;29;20283;-80
2022/01/05 18:36:47;;;;;;;17.60;4.17;;;;;4.70;100848.00;;;;9908487;29;20209;-80
2022/01/05 18:41:49;;;;;;;15.57;4.67;;;;;4.80;100863.00;;;;9926875;29;20214;-80
2022/01/05 18:46:51;;;;;;;15.80;4.47;;;;;4.80;100850.00;;;;9907195;29;20663;-80
2022/01/05 18:51:53;;;;;;;20.47;4.13;;;;;4.80;100868.00;;;;9915729;29;20218;-80
2022/01/05 18:56:55;;;;;;;17.37;4.87;;;;;4.70;100868.00;;;;9881206;29;20286;-80
2022/01/05 19:01:57;;;;;;;16.00;4.30;;;;;4.70;100875.00;;;;9925403;29;20203;-80
2022/01/05 19:06:59;;;;;;;16.80;5.23;;;;;4.70;100877.00;;;;9903995;29;20199;-80
2022/01/05 19:12:03;;;;;;;15.47;5.40;;;;;4.70;100869.00;;;;9915528;29;20242;-79
2022/01/05 19:17:05;;;;;;;13.47;4.60;;;;;4.70;100877.00;;;;9932072;29;20238;-79
2022/01/05 19:22:09;;;;;;;16.80;5.23;;;;;4.60;100871.00;;;;9888627;29;20235;-80
2022/01/05 19:27:13;;;;;;;18.23;5.07;;;;;4.60;100885.00;;;;9879019;30;20225;-79
2022/01/05 19:32:18;;;;;;;15.00;4.70;;;;;4.50;100884.00;;;;9878353;30;20223;-82
2022/01/05 19:37:20;;;;;;;9.60;5.27;;;;;4.60;100900.00;;;;9852454;29;20260;-80
2022/01/05 19:42:22;;;;;;;16.03;4.20;;;;;4.60;100892.00;;;;9886470;29;20202;-80
2022/01/05 19:47:24;;;;;;;21.27;4.77;;;;;4.70;100906.00;;;;9900002;29;20209;-79
2022/01/05 19:52:35;;;;;;;20.03;5.53;;;;;4.70;100906.00;;;;9984201;29;20210;-79
2022/01/05 19:57:37;;;;;;;19.17;4.90;;;;;4.60;100914.00;;;;9969321;29;20183;-80
2022/01/05 20:02:39;;;;;;;16.83;4.60;;;;;4.70;100917.00;;;;9984801;29;20210;-79
2022/01/05 20:07:42;;;;;;;23.80;5.67;;;;;4.70;100931.00;;;;9950680;29;20267;-80
2022/01/05 20:12:48;;;;;;;18.63;5.07;;;;;4.80;100929.00;;;;9902392;29;20275;-79
2022/01/05 20:17:50;;;;;;;12.83;4.10;;;;;4.80;100937.00;;;;9891019;29;20682;-80
2022/01/05 20:22:53;;;;;;;14.60;5.23;;;;;4.90;100936.00;;;;9887499;29;20242;-80
2022/01/05 20:27:54;;;;;;;16.20;4.43;;;;;4.90;100936.00;;;;9947338;29;20202;-80
2022/01/05 20:32:59;;;;;;;14.80;4.67;;;;;4.90;100937.00;;;;9941660;29;20215;-80
2022/01/05 20:38:01;;;;;;;19.93;5.90;;;;;4.90;100958.00;;;;9913583;29;20215;-81
2022/01/05 20:43:06;;;;;;;21.60;4.67;;;;;4.90;100960.00;;;;9937015;29;20705;-82
2022/01/05 20:48:10;;;;;;;20.03;5.20;;;;;4.90;100957.00;;;;9907699;29;20252;-81
2022/01/05 20:53:11;;;;;;;13.43;5.00;;;;;4.80;100974.00;;;;9929853;29;20263;-81
2022/01/05 20:58:13;;;;;;;17.97;4.70;;;;;4.80;100993.00;;;;9886263;30;20266;-82
2022/01/05 21:03:16;;;;;;;20.20;5.60;;;;;4.80;101002.00;;;;9915974;29;20206;-82
2022/01/05 21:08:18;;;;;;;26.83;6.50;;;;;4.70;100999.00;;;;9893944;29;20207;-82
2022/01/05 21:13:20;;;;;;;12.93;5.27;;;;;4.70;100999.00;;;;9922541;29;20279;-81
2022/01/05 21:18:23;;;;;;;24.23;5.70;;;;;4.70;101000.00;;;;9935123;29;20207;-80
2022/01/05 21:23:24;;;;;;;15.37;5.23;;;;;4.70;101012.00;;;;9959163;29;20233;-80
2022/01/05 21:28:26;;;;;;;13.20;5.07;;;;;4.70;101007.00;;;;9973856;29;20203;-80
2022/01/05 21:33:29;;;;;;;20.23;5.37;;;;;4.70;101025.00;;;;9972110;29;20229;-80
2022/01/05 21:38:31;;;;;;;14.13;5.30;;;;;4.70;101015.00;;;;9933257;29;20211;-81
2022/01/05 21:43:32;;;;;;;17.07;4.80;;;;;4.70;101026.00;;;;9921383;29;20203;-82
2022/01/05 21:48:35;;;;;;;18.07;5.20;;;;;4.70;101033.00;;;;9941887;29;20204;-82
2022/01/05 21:53:37;;;;;;;17.37;5.03;;;;;4.70;101044.00;;;;9928932;29;20279;-82
2022/01/05 21:58:39;;;;;;;19.10;3.83;;;;;4.70;101045.00;;;;9895326;30;20266;-82
2022/01/05 22:03:42;;;;;;;15.93;3.87;;;;;4.70;101057.00;;;;9884312;29;20260;-81
2022/01/05 22:08:44;;;;;;;16.63;4.20;;;;;4.60;101052.00;;;;9913253;29;20233;-82
2022/01/05 22:13:46;;;;;;;17.07;3.30;;;;;4.60;101052.00;;;;9884896;29;20276;-81
2022/01/05 22:18:48;;;;;;;9.37;2.77;;;;;4.60;101075.00;;;;9905306;29;20255;-82
2022/01/05 22:23:50;;;;;;;6.67;1.90;;;;;4.50;101076.00;;;;9918128;29;20239;-81
2022/01/05 22:28:52;;;;;;;12.83;2.40;;;;;4.50;101077.00;;;;9905207;29;20218;-80
2022/01/05 22:33:54;;;;;;;10.30;2.87;;;;;4.50;101081.00;;;;9904968;29;20219;-81
2022/01/05 22:38:56;;;;;;;9.30;3.63;;;;;4.50;101087.00;;;;9934331;29;20268;-80
2022/01/05 22:43:59;;;;;;;13.73;4.60;;;;;4.50;101101.00;;;;9882366;29;20211;-80
2022/01/05 22:49:01;;;;;;;15.17;5.33;;;;;4.60;101106.00;;;;9910644;29;20208;-80
2022/01/05 22:54:03;;;;;;;16.73;5.53;;;;;4.60;101129.00;;;;9883810;29;20227;-80
2022/01/05 22:59:05;;;;;;;16.20;4.90;;;;;4.70;101119.00;;;;9918883;29;20199;-81
2022/01/05 23:04:09;;;;;;;9.27;3.90;;;;;4.60;101110.00;;;;9932679;29;20675;-81
2022/01/05 23:09:10;;;;;;;15.17;3.63;;;;;4.50;101119.00;;;;9918358;29;20556;-81
2022/01/05 23:14:13;;;;;;;10.10;2.87;;;;;4.40;101117.00;;;;9932860;29;20275;-81
2022/01/05 23:19:15;;;;;;;17.57;3.47;;;;;4.40;101116.00;;;;9933671;29;20198;-80
2022/01/05 23:24:16;;;;;;;19.37;3.50;;;;;4.30;101113.00;;;;9933246;29;20287;-80
2022/01/05 23:29:19;;;;;;;10.40;1.73;;;;;4.30;101134.00;;;;9895524;30;20212;-80
2022/01/05 23:34:20;;;;;;;9.00;2.67;;;;;4.20;101148.00;;;;9900565;30;20280;-80
2022/01/05 23:39:22;;;;;;;12.83;2.00;;;;;4.20;101163.00;;;;9925914;29;20199;-80
2022/01/05 23:44:24;;;;;;;10.63;2.40;;;;;4.20;101151.00;;;;9941739;29;20206;-80
2022/01/05 23:49:26;;;;;;;7.93;2.53;;;;;4.20;101156.00;;;;9955024;29;20255;-80
2022/01/05 23:54:28;;;;;;;8.87;2.43;;;;;4.20;101165.00;;;;9916061;29;20224;-80
2022/01/05 23:59:30;;;;;;;9.03;2.30;;;;;4.20;101153.00;;;;9865202;30;20741;-79
